Middleton, New Hampshire
Current Conditions -  °F | °C
As of 4:51 AM on Monday 26 Jan 2015 (Local Time) from KDAW Reporting Station
Clear Clear  
Wind Chill:   Ceiling: Unl
Heat Index:   Visibility: 10mi
Dew Point: -5°   Wind: 0mph
Humidity: 63%   Direction: NA
Pressure: 30.09"   Gusts: NA
Location:  43.4575°N, 71.038°W
Report Text: KDAW 260951Z AUTO 00000KT 10SM CLR M15/M21 A3009 RMK AO2 SLP191 T11501206
Loading
Personal Weather Stations






























Interactive Weather Map New forecast layout! Learn more

10-Day Weather Forecast

Advertisements
Track Severe Weather on mobile